Time;durP1;ratioP1;P1;durP2;ratioP2;P2;SDS_P1;SDS_P2;PMS_P1;PMS_P2;Temp;Humidity;BMP_temperature;BMP_pressure;BME280_temperature;BME280_humidity;BME280_pressure;Samples;Min_cycle;Max_cycle;Signal;HPM_P1;HPM_P2
2021/04/21 00:01:18;;;;;;;15.67;7.37;;;;;;;3.26;51.58;100563.88;5084339;28;20539;-71
2021/04/21 00:03:48;;;;;;;3.07;1.67;;;;;;;3.36;51.78;100586.44;5080805;28;20565;-70
2021/04/21 00:06:16;;;;;;;1.80;1.70;;;;;;;3.55;52.35;100614.91;5077116;28;20497;-70
2021/04/21 00:08:46;;;;;;;1.07;0.90;;;;;;;3.01;52.87;100528.63;5084537;28;20197;-70
2021/04/21 00:11:16;;;;;;;2.20;1.00;;;;;;;3.42;52.53;100603.94;5071887;28;20316;-70
2021/04/21 00:13:43;;;;;;;0.80;0.80;;;;;;;3.34;53.57;100600.69;5090664;28;20242;-70
2021/04/21 00:16:12;;;;;;;0.50;0.50;;;;;;;3.30;53.01;100589.34;5091967;28;20328;-71
2021/04/21 00:18:43;;;;;;;0.87;0.70;;;;;;;3.32;52.25;100598.09;5072182;28;20724;-70
2021/04/21 00:21:11;;;;;;;0.50;0.50;;;;;;;3.30;52.70;100599.97;5082749;28;20303;-71
2021/04/21 00:23:40;;;;;;;1.17;0.90;;;;;;;3.31;52.39;100583.13;5078468;28;20220;-70
2021/04/21 00:26:15;;;;;;;0.80;0.60;;;;;;;3.30;52.64;100589.34;5090912;28;20641;-71
2021/04/21 00:28:43;;;;;;;0.70;0.60;;;;;;;3.26;52.66;100578.94;5091303;28;20317;-70
2021/04/21 00:31:14;;;;;;;0.60;0.60;;;;;;;3.18;52.68;100568.63;5091635;28;20285;-70
2021/04/21 00:33:43;;;;;;;2.07;1.00;;;;;;;3.12;53.41;100558.28;5091869;28;20626;-70
2021/04/21 00:36:14;;;;;;;0.50;0.50;;;;;;;3.03;53.33;100558.63;5092035;28;20211;-70
2021/04/21 00:38:43;;;;;;;1.57;0.50;;;;;;;2.97;53.59;100537.66;5079873;28;20200;-71
2021/04/21 00:41:24;;;;;;;2.23;0.67;;;;;;;3.04;52.84;100547.94;5070706;28;20281;-70
2021/04/21 00:43:54;;;;;;;1.50;1.00;;;;;;;3.02;52.60;100538.31;5088013;28;20291;-70
2021/04/21 00:46:25;;;;;;;0.97;0.70;;;;;;;3.05;53.40;100539.06;5072305;28;20666;-70
2021/04/21 00:49:05;;;;;;;1.23;0.87;;;;;;;3.01;53.18;100537.47;5080374;28;20189;-70
2021/04/21 00:51:41;;;;;;;0.40;0.40;;;;;;;2.99;52.74;100533.16;5077631;28;20258;-71
2021/04/21 00:54:15;;;;;;;3.30;0.67;;;;;;;2.95;53.56;100526.25;5076498;28;20287;-71
2021/04/21 00:57:02;;;;;;;2.43;0.67;;;;;;;2.86;53.90;100516.00;5076965;28;20693;-71
2021/04/21 00:59:52;;;;;;;0.77;0.77;;;;;;;2.79;53.27;100507.44;5075290;28;20240;-71
2021/04/21 01:02:24;;;;;;;2.33;0.60;;;;;;;2.82;53.13;100517.06;5077346;28;20193;-70
2021/04/21 01:04:54;;;;;;;0.67;0.50;;;;;;;2.79;53.18;100510.94;5083401;28;20230;-71
2021/04/21 01:07:22;;;;;;;0.80;0.53;;;;;;;2.74;53.18;100502.28;5077220;28;20201;-71
2021/04/21 01:09:53;;;;;;;0.83;0.70;;;;;;;2.74;52.90;100493.47;5074499;28;20237;-72
2021/04/21 01:12:23;;;;;;;0.53;0.50;;;;;;;2.74;53.47;100493.47;5067921;28;20279;-71
2021/04/21 01:14:53;;;;;;;0.60;0.60;;;;;;;2.71;53.15;100489.16;5089000;28;20218;-69
2021/04/21 01:17:24;;;;;;;0.60;0.60;;;;;;;2.71;52.74;100489.16;5074782;28;20207;-71
2021/04/21 01:20:08;;;;;;;0.57;0.53;;;;;;;2.69;53.66;100483.06;5075452;28;20320;-70
2021/04/21 01:22:57;;;;;;;2.60;0.80;;;;;;;2.40;53.25;100431.19;5073164;28;20200;-69
2021/04/21 01:25:34;;;;;;;0.60;0.60;;;;;;;2.64;52.89;100481.53;5076373;28;20682;-71
2021/04/21 01:28:07;;;;;;;2.43;0.70;;;;;;;2.56;53.09;100473.88;5083855;28;20278;-71
2021/04/21 01:30:38;;;;;;;0.63;0.63;;;;;;;2.57;53.00;100474.75;5084524;28;20251;-70
2021/04/21 01:33:15;;;;;;;0.50;0.50;;;;;;;2.55;53.59;100476.59;5081101;28;20551;-70
2021/04/21 01:35:46;;;;;;;2.33;0.67;;;;;;;2.49;53.14;100461.81;5080632;28;20700;-69
2021/04/21 01:38:14;;;;;;;0.60;0.50;;;;;;;2.54;53.61;100464.25;5076154;28;20235;-69
2021/04/21 01:40:45;;;;;;;0.77;0.47;;;;;;;2.52;53.73;100466.97;5087731;28;20206;-69
2021/04/21 01:43:18;;;;;;;0.97;0.80;;;;;;;2.10;53.88;100390.88;5070067;28;20283;-69
2021/04/21 01:45:47;;;;;;;0.50;0.50;;;;;;;2.39;54.90;100447.16;5077237;28;20193;-70
2021/04/21 01:48:19;;;;;;;2.03;0.73;;;;;;;2.36;54.12;100445.50;5080204;28;20204;-70
2021/04/21 01:50:46;;;;;;;1.83;0.73;;;;;;;2.34;54.23;100436.75;5078836;28;20285;-70
2021/04/21 01:53:23;;;;;;;1.53;0.83;;;;;;;2.28;54.47;100428.19;5072639;28;20249;-70
2021/04/21 01:56:06;;;;;;;1999.90;784.33;;;;;;;2.30;53.84;100429.84;5082420;28;20652;-70
2021/04/21 01:58:45;;;;;;;245.97;87.50;;;;;;;2.31;54.15;100425.41;5069809;28;20235;-69
2021/04/21 02:01:24;;;;;;;3.67;2.30;;;;;;;2.30;53.68;100421.03;5093490;28;20587;-70
2021/04/21 02:03:58;;;;;;;5.17;3.03;;;;;;;2.14;54.55;100391.63;5070714;28;20203;-69
2021/04/21 02:06:43;;;;;;;3.50;2.40;;;;;;;2.41;54.58;100416.16;5080810;28;20653;-70
2021/04/21 02:09:47;;;;;;;2.30;1.03;;;;;;;2.31;55.12;100385.69;5081660;28;20287;-70
2021/04/21 02:12:27;;;;;;;4.10;1.20;;;;;;;2.42;54.62;100405.50;5074501;28;20725;-70
2021/04/21 02:15:04;;;;;;;2.03;0.93;;;;;;;2.39;54.59;100404.78;5079387;28;20219;-69
2021/04/21 02:17:38;;;;;;;2.00;0.57;;;;;;;2.30;55.17;100402.50;5070832;28;20659;-70
2021/04/21 02:20:14;;;;;;;1.23;1.13;;;;;;;2.28;54.42;100399.03;5074610;28;20225;-70
2021/04/21 02:22:47;;;;;;;1.57;0.90;;;;;;;2.21;54.69;100382.53;5072575;28;20249;-70
2021/04/21 02:25:20;;;;;;;0.87;0.80;;;;;;;2.19;54.74;100384.38;5073925;28;20286;-70
2021/04/21 02:28:02;;;;;;;0.77;0.70;;;;;;;2.21;54.60;100379.88;5073099;28;20698;-70
2021/04/21 02:30:39;;;;;;;1.20;0.83;;;;;;;2.04;54.72;100350.53;5074807;28;20199;-70
2021/04/21 02:33:16;;;;;;;3.07;2.40;;;;;;;2.17;54.57;100376.50;5071764;28;20200;-69
2021/04/21 02:35:49;;;;;;;1.97;1.07;;;;;;;2.12;54.68;100361.69;5070728;28;20283;-70
2021/04/21 02:38:24;;;;;;;0.83;0.67;;;;;;;2.15;54.70;100370.41;5074480;28;20654;-70
2021/04/21 02:41:06;;;;;;;0.83;0.70;;;;;;;2.10;54.70;100356.44;5082042;28;20923;-70
2021/04/21 02:43:50;;;;;;;0.73;0.70;;;;;;;2.08;54.33;100349.50;5074884;28;20207;-70
2021/04/21 02:46:26;;;;;;;2.63;0.70;;;;;;;2.04;54.12;100343.47;5075900;28;20245;-70
2021/04/21 02:49:07;;;;;;;0.50;0.50;;;;;;;1.90;54.14;100314.03;5082692;28;20226;-70
2021/04/21 02:51:47;;;;;;;0.67;0.67;;;;;;;2.04;54.50;100334.66;5072821;28;20195;-70
2021/04/21 02:54:21;;;;;;;0.73;0.47;;;;;;;2.06;54.88;100333.66;5077379;28;20208;-71
2021/04/21 02:56:56;;;;;;;2.27;0.80;;;;;;;2.03;54.48;100331.16;5073512;28;20289;-71
2021/04/21 02:59:33;;;;;;;3.10;0.63;;;;;;;2.00;54.75;100320.69;5078927;28;20684;-71
2021/04/21 03:02:06;;;;;;;0.67;0.57;;;;;;;1.82;54.94;100289.63;5081462;28;20203;-71
2021/04/21 03:04:41;;;;;;;0.90;0.60;;;;;;;1.93;55.43;100316.56;5089152;28;20203;-71
2021/04/21 03:07:16;;;;;;;2.10;0.50;;;;;;;1.93;54.89;100308.59;5082970;28;20663;-69
2021/04/21 03:09:50;;;;;;;1.33;0.77;;;;;;;1.93;55.02;100313.91;5077520;28;20243;-69
2021/04/21 03:12:23;;;;;;;0.80;0.50;;;;;;;1.92;55.32;100306.88;5086645;28;20592;-70
2021/04/21 03:14:56;;;;;;;0.80;0.70;;;;;;;1.88;55.50;100297.34;5087856;28;20684;-70
2021/04/21 03:17:24;;;;;;;1.17;0.70;;;;;;;1.85;55.45;100294.81;5081036;28;20210;-70
2021/04/21 03:19:55;;;;;;;0.97;0.80;;;;;;;1.86;55.07;100294.75;5082611;28;20215;-70
2021/04/21 03:22:27;;;;;;;0.63;0.63;;;;;;;1.84;55.49;100285.16;5091873;28;20567;-70
2021/04/21 03:25:10;;;;;;;1.73;0.70;;;;;;;1.86;54.84;100281.53;5081217;28;20245;-69
2021/04/21 03:27:42;;;;;;;3.93;0.70;;;;;;;1.86;55.37;100278.88;5077437;28;20290;-70
2021/04/21 03:30:13;;;;;;;0.83;0.60;;;;;;;1.88;55.33;100276.16;5072833;28;20247;-71
2021/04/21 03:32:47;;;;;;;0.50;0.50;;;;;;;1.90;54.71;100279.63;5081427;28;20669;-71
2021/04/21 03:35:16;;;;;;;0.60;0.60;;;;;;;1.64;54.90;100238.28;5082586;28;20763;-72
2021/04/21 03:37:55;;;;;;;1.30;0.77;;;;;;;1.94;54.86;100267.97;5092027;28;20344;-72
2021/04/21 03:40:23;;;;;;;1.37;0.80;;;;;;;1.99;54.77;100271.28;5084570;28;20279;-70
2021/04/21 03:42:51;;;;;;;0.83;0.60;;;;;;;1.95;55.47;100264.41;5089383;28;20709;-71
2021/04/21 03:45:19;;;;;;;53.17;28.13;;;;;;;1.99;55.45;100257.19;5088274;28;20192;-71
2021/04/21 03:47:49;;;;;;;7.77;2.33;;;;;;;2.01;55.05;100258.00;5080546;28;20223;-70
2021/04/21 03:50:17;;;;;;;1.23;1.03;;;;;;;2.03;54.92;100264.94;5088116;28;20218;-70
2021/04/21 03:52:48;;;;;;;6.33;1.80;;;;;;;2.03;57.00;100257.00;5078892;28;20611;-72
2021/04/21 03:55:16;;;;;;;9.40;4.83;;;;;;;2.10;55.91;100261.13;5081051;28;20282;-71
2021/04/21 03:57:46;;;;;;;3.50;0.80;;;;;;;1.91;56.15;100203.72;5076992;28;20308;-71
2021/04/21 04:00:17;;;;;;;5.50;1.10;;;;;;;1.96;57.92;100212.31;5072794;28;20582;-71
2021/04/21 04:02:49;;;;;;;3.10;0.83;;;;;;;2.31;56.51;100247.91;5076205;28;20245;-70
2021/04/21 04:05:20;;;;;;;2.50;1.07;;;;;;;2.37;55.79;100245.88;5074998;28;20673;-72
2021/04/21 04:07:51;;;;;;;1.47;0.60;;;;;;;2.42;56.45;100235.06;5084983;28;20199;-70
2021/04/21 04:10:20;;;;;;;1.73;0.70;;;;;;;2.49;56.85;100236.56;5080131;28;20369;-70
2021/04/21 04:12:50;;;;;;;5.33;0.90;;;;;;;2.52;57.69;100231.13;5083778;28;20671;-71
2021/04/21 04:15:20;;;;;;;0.70;0.70;;;;;;;2.59;56.50;100229.06;5080178;28;20666;-72
2021/04/21 04:17:51;;;;;;;0.70;0.70;;;;;;;2.52;57.99;100206.41;5083118;28;20571;-69
2021/04/21 04:20:19;;;;;;;1.43;1.30;;;;;;;2.65;57.38;100213.75;5077192;28;20280;-70
2021/04/21 04:22:49;;;;;;;1.03;0.60;;;;;;;2.76;58.41;100210.66;5077722;28;20204;-71
2021/04/21 04:25:18;;;;;;;5.57;0.97;;;;;;;2.78;57.21;100192.88;5080442;28;20581;-70
2021/04/21 04:27:46;;;;;;;4.27;0.87;;;;;;;3.04;57.06;100210.25;5079771;28;20224;-70
2021/04/21 04:30:15;;;;;;;1.13;0.60;;;;;;;2.92;58.71;100185.16;5076477;28;20311;-71
2021/04/21 04:32:43;;;;;;;1.47;0.90;;;;;;;3.13;56.75;100193.94;5080087;28;20185;-71
2021/04/21 04:35:12;;;;;;;1.43;0.87;;;;;;;3.29;57.16;100200.22;5079766;28;20189;-70
2021/04/21 04:37:42;;;;;;;2.13;1.00;;;;;;;3.32;58.06;100189.47;5080742;28;20283;-70
2021/04/21 04:40:11;;;;;;;2.93;0.90;;;;;;;3.42;57.26;100187.25;5076304;28;20296;-73
2021/04/21 04:42:38;;;;;;;0.93;0.90;;;;;;;3.51;57.78;100183.28;5075282;28;20304;-73
2021/04/21 04:45:07;;;;;;;0.73;0.73;;;;;;;3.66;57.35;100182.53;5074606;28;20907;-70
2021/04/21 04:47:42;;;;;;;5.37;0.67;;;;;;;3.88;57.02;100180.56;5079344;28;20208;-73
2021/04/21 04:50:14;;;;;;;1.07;0.90;;;;;;;3.90;59.01;100169.88;5079474;28;20590;-74
2021/04/21 04:52:43;;;;;;;6.23;0.90;;;;;;;4.10;58.73;100169.75;5081759;28;20224;-72
2021/04/21 04:55:14;;;;;;;2.00;1.10;;;;;;;4.35;57.86;100164.03;5076631;28;20248;-72
2021/04/21 04:57:46;;;;;;;0.97;0.70;;;;;;;4.50;60.05;100165.88;5074311;28;20218;-72
2021/04/21 05:00:16;;;;;;;0.70;0.70;;;;;;;4.65;59.71;100164.25;5075692;28;20675;-71
2021/04/21 05:02:53;;;;;;;1.80;0.97;;;;;;;4.50;59.21;100118.03;5074682;28;20287;-72
2021/04/21 05:05:22;;;;;;;2.67;0.80;;;;;;;4.73;60.79;100161.16;5093195;28;20367;-72
2021/04/21 05:07:57;;;;;;;1.47;0.90;;;;;;;4.89;59.52;100143.44;5104330;27;20202;-72
2021/04/21 05:10:27;;;;;;;0.87;0.80;;;;;;;5.08;59.43;100152.13;5069685;28;20716;-72
2021/04/21 05:13:02;;;;;;;6.50;0.80;;;;;;;5.25;59.46;100141.44;5075272;28;20242;-72
2021/04/21 05:16:09;;;;;;;1.50;0.83;;;;;;;5.43;59.67;100142.19;5080890;28;20207;-72
2021/04/21 05:19:19;;;;;;;1.40;1.10;;;;;;;5.58;59.85;100135.16;5083349;28;20306;-73
2021/04/21 05:22:28;;;;;;;0.80;0.80;;;;;;;5.67;59.94;100133.75;5064719;28;20242;-72
2021/04/21 05:25:32;;;;;;;2.80;0.90;;;;;;;5.86;57.75;100132.63;5076639;28;20298;-72
2021/04/21 05:28:39;;;;;;;5.87;0.93;;;;;;;6.00;57.36;100122.97;5074317;28;20202;-72
2021/04/21 05:31:53;;;;;;;1.90;0.80;;;;;;;6.09;56.75;100112.63;5074053;28;20244;-73
2021/04/21 05:34:57;;;;;;;2.13;1.10;;;;;;;6.27;55.82;100112.50;5061881;28;20214;-73
2021/04/21 05:38:18;;;;;;;1.73;0.90;;;;;;;6.32;57.22;100108.59;5077448;28;20856;-72
2021/04/21 05:41:07;;;;;;;1.50;0.87;;;;;;;6.37;57.29;100108.31;5036630;28;20201;-75
2021/04/21 05:44:08;;;;;;;1.37;0.80;;;;;;;6.48;58.05;100101.38;5084922;28;20622;-75
2021/04/21 05:47:08;;;;;;;0.90;0.70;;;;;;;6.61;58.12;100081.94;5076817;28;20270;-75
2021/04/21 05:50:07;;;;;;;0.90;0.67;;;;;;;6.88;58.45;100096.22;5086686;28;20262;-75
2021/04/21 05:52:59;;;;;;;2.43;1.00;;;;;;;7.01;58.74;100091.81;5088836;28;20234;-75
2021/04/21 05:56:05;;;;;;;0.97;0.80;;;;;;;7.10;59.52;100088.59;5077512;28;20213;-76
2021/04/21 05:58:56;;;;;;;1.10;0.87;;;;;;;7.23;60.22;100079.78;5022291;28;20296;-76
2021/04/21 06:01:28;;;;;;;0.90;0.90;;;;;;;7.54;60.92;100073.28;5082790;28;20276;-76
2021/04/21 06:03:57;;;;;;;0.70;0.70;;;;;;;7.75;59.43;100075.41;5087427;28;20207;-76
2021/04/21 06:06:25;;;;;;;4.93;1.23;;;;;;;7.60;59.12;100006.94;5082693;28;20229;-72
2021/04/21 06:08:52;;;;;;;1.53;1.07;;;;;;;8.23;56.96;100058.78;5079085;28;20249;-72
2021/04/21 06:11:26;;;;;;;1.03;0.93;;;;;;;8.60;56.77;100062.47;5073190;28;20239;-72
2021/04/21 06:13:56;;;;;;;1.50;1.20;;;;;;;8.95;55.88;100035.84;5088162;28;20285;-72
2021/04/21 06:16:24;;;;;;;1.33;0.93;;;;;;;9.18;54.69;100015.41;5079614;28;20245;-72
2021/04/21 06:18:55;;;;;;;4.20;1.23;;;;;;;9.78;54.48;100042.13;5082073;28;20206;-72
2021/04/21 06:21:23;;;;;;;1.40;1.30;;;;;;;10.21;52.40;100055.84;5081177;28;20226;-72
2021/04/21 06:23:53;;;;;;;0.90;0.90;;;;;;;10.50;50.27;100033.91;5081676;28;20193;-72
2021/04/21 06:26:23;;;;;;;0.90;0.90;;;;;;;10.67;50.12;100028.03;5069676;28;20221;-72
2021/04/21 06:29:05;;;;;;;5.87;1.50;;;;;;;11.07;49.23;100023.03;5074779;28;20275;-72
2021/04/21 06:31:38;;;;;;;2.20;1.43;;;;;;;11.42;48.71;100022.81;5087218;28;20856;-72
2021/04/21 06:34:07;;;;;;;1.67;1.07;;;;;;;11.74;48.06;100027.34;5072554;28;20666;-72
2021/04/21 06:36:39;;;;;;;9.83;1.10;;;;;;;12.04;47.89;100023.91;5088852;28;20294;-72
2021/04/21 06:39:07;;;;;;;1.10;1.00;;;;;;;12.25;47.39;100018.53;5085762;28;20720;-72
2021/04/21 06:41:34;;;;;;;1.27;0.90;;;;;;;12.57;47.08;100021.97;5076643;28;20212;-75
2021/04/21 06:44:02;;;;;;;1.50;1.40;;;;;;;12.87;46.59;100014.84;5089042;28;20201;-75
2021/04/21 06:46:33;;;;;;;2.30;1.17;;;;;;;13.06;46.30;100007.66;5077317;28;20226;-76
2021/04/21 06:49:02;;;;;;;3.07;1.20;;;;;;;13.31;46.37;100000.94;5089589;28;20687;-73
2021/04/21 06:51:32;;;;;;;1.43;1.33;;;;;;;13.57;45.97;99995.84;5075597;28;20276;-75
2021/04/21 06:54:00;;;;;;;4.57;1.30;;;;;;;13.85;45.61;99988.75;5090305;28;20295;-75
2021/04/21 06:56:30;;;;;;;1.80;1.33;;;;;;;14.06;44.50;99976.91;5075416;28;20267;-75
2021/04/21 06:58:58;;;;;;;2.13;1.40;;;;;;;14.08;44.40;99953.31;5089635;28;20284;-73
2021/04/21 07:01:31;;;;;;;2.17;1.80;;;;;;;14.49;43.75;99971.84;5084910;28;20279;-74
2021/04/21 07:04:14;;;;;;;1.40;1.30;;;;;;;14.72;42.86;99976.88;5069283;28;20261;-74
2021/04/21 07:06:54;;;;;;;2.73;1.90;;;;;;;15.02;42.46;99973.88;5088389;28;20212;-73
2021/04/21 07:09:23;;;;;;;5.40;1.73;;;;;;;15.22;41.43;99961.91;5089638;28;20623;-73
2021/04/21 07:11:57;;;;;;;2.80;1.93;;;;;;;15.47;40.52;99967.56;5080457;28;20195;-74
2021/04/21 07:14:26;;;;;;;4.47;1.93;;;;;;;15.55;40.83;99954.09;5080200;28;20237;-74
2021/04/21 07:16:56;;;;;;;3.03;1.73;;;;;;;15.65;40.93;99964.91;5077040;28;20201;-74
2021/04/21 07:19:25;;;;;;;5.20;1.90;;;;;;;15.89;40.72;99956.13;5074823;28;20254;-75
2021/04/21 07:21:53;;;;;;;3.73;1.77;;;;;;;16.04;40.16;99957.25;5084184;28;20288;-74
2021/04/21 07:24:29;;;;;;;7.70;2.10;;;;;;;16.10;40.80;99934.94;5089275;28;20199;-75
2021/04/21 07:26:58;;;;;;;5.70;1.87;;;;;;;16.35;39.82;99958.47;5087699;28;20201;-74
2021/04/21 07:29:26;;;;;;;4.93;1.97;;;;;;;16.57;39.20;99950.81;5078205;28;20223;-74
2021/04/21 07:31:55;;;;;;;5.73;1.63;;;;;;;16.73;38.64;99945.47;5084111;28;20209;-74
2021/04/21 07:34:30;;;;;;;5.17;1.90;;;;;;;16.90;39.36;99946.41;5091999;28;20195;-74
2021/04/21 07:36:58;;;;;;;3.50;1.80;;;;;;;16.96;39.16;99938.44;5087104;28;20307;-75
2021/04/21 07:39:32;;;;;;;3.13;1.60;;;;;;;17.02;38.12;99935.06;5086457;28;20606;-75
2021/04/21 07:41:59;;;;;;;5.90;2.00;;;;;;;17.22;38.52;99923.94;5072136;28;20202;-74
2021/04/21 07:44:29;;;;;;;3.40;2.10;;;;;;;17.32;37.85;99902.91;5086502;28;20281;-75
2021/04/21 07:47:11;;;;;;;5.37;2.27;;;;;;;17.38;37.53;99884.06;5072155;28;20202;-74
2021/04/21 07:49:40;;;;;;;7.57;2.40;;;;;;;17.87;37.24;99919.41;5072366;28;20438;-75
2021/04/21 07:52:07;;;;;;;5.70;2.10;;;;;;;18.05;37.14;99921.06;5083796;28;20202;-75
2021/04/21 07:54:35;;;;;;;8.07;2.33;;;;;;;18.05;37.08;99902.91;5077856;28;20232;-74
2021/04/21 07:57:10;;;;;;;6.33;2.00;;;;;;;18.28;37.88;99903.88;5080509;28;20207;-75
2021/04/21 07:59:41;;;;;;;6.30;2.30;;;;;;;18.35;37.11;99903.16;5077065;28;20551;-74
2021/04/21 08:02:18;;;;;;;5.60;2.27;;;;;;;18.49;36.84;99895.16;5082306;28;20228;-75
2021/04/21 08:04:51;;;;;;;4.53;2.27;;;;;;;18.63;36.42;99876.41;5088383;28;20208;-74
2021/04/21 08:07:26;;;;;;;2.80;1.90;;;;;;;18.86;36.29;99888.19;5088707;28;20212;-75
2021/04/21 08:09:54;;;;;;;4.37;2.57;;;;;;;18.55;37.26;99883.56;5083334;28;20233;-75
2021/04/21 08:12:22;;;;;;;7.90;2.80;;;;;;;18.74;37.13;99874.16;5085734;28;20564;-74
2021/04/21 08:14:52;;;;;;;7.40;2.53;;;;;;;18.99;35.90;99877.59;5086878;28;20200;-74
2021/04/21 08:17:20;;;;;;;2.40;1.90;;;;;;;19.27;34.77;99877.03;5086520;28;20251;-74
2021/04/21 08:19:53;;;;;;;3.50;2.33;;;;;;;19.38;35.57;99869.31;5086220;28;20197;-74
2021/04/21 08:22:24;;;;;;;9.77;2.57;;;;;;;19.24;35.68;99842.88;5083400;28;20724;-74
2021/04/21 08:24:51;;;;;;;8.63;2.33;;;;;;;19.60;35.61;99873.09;5071826;28;20478;-74
2021/04/21 08:27:20;;;;;;;2.60;2.03;;;;;;;19.43;35.35;99841.53;5084481;28;20188;-74
2021/04/21 08:29:50;;;;;;;9.97;2.30;;;;;;;19.76;34.38;99874.81;5086011;28;20209;-74
2021/04/21 08:32:22;;;;;;;4.37;2.20;;;;;;;19.80;35.58;99866.06;5080959;28;20229;-74
2021/04/21 08:34:51;;;;;;;5.67;1.90;;;;;;;19.96;35.04;99865.06;5076150;28;20666;-74
2021/04/21 08:37:20;;;;;;;5.00;2.43;;;;;;;20.12;33.76;99862.16;5076512;28;20197;-74
2021/04/21 08:39:47;;;;;;;3.03;2.00;;;;;;;20.23;32.60;99857.28;5079490;28;20254;-74
2021/04/21 08:42:15;;;;;;;2.10;1.90;;;;;;;20.13;33.05;99828.41;5081499;28;20203;-74
2021/04/21 08:44:43;;;;;;;5.07;2.63;;;;;;;20.00;34.07;99817.31;5075043;28;20194;-74
2021/04/21 08:47:15;;;;;;;4.20;2.63;;;;;;;20.26;34.83;99863.22;5084015;28;20554;-74
2021/04/21 08:49:43;;;;;;;4.27;2.50;;;;;;;20.34;34.23;99848.63;5077299;28;20744;-74
2021/04/21 08:52:16;;;;;;;4.00;2.37;;;;;;;20.37;33.29;99845.53;5084051;28;20197;-74
2021/04/21 08:54:47;;;;;;;5.03;2.80;;;;;;;20.63;33.16;99855.97;5075393;28;20686;-74
2021/04/21 08:57:15;;;;;;;3.97;2.60;;;;;;;20.59;31.96;99836.41;5071587;28;20205;-74
2021/04/21 08:59:43;;;;;;;3.87;2.60;;;;;;;20.63;32.15;99856.81;5088118;28;20401;-74
2021/04/21 09:02:11;;;;;;;9.00;2.80;;;;;;;20.64;32.28;99847.59;5081955;28;20205;-74
2021/04/21 09:04:39;;;;;;;5.20;3.00;;;;;;;20.68;32.01;99850.78;5086021;28;20196;-75
2021/04/21 09:07:06;;;;;;;3.93;2.47;;;;;;;20.72;31.55;99844.72;5078981;28;20250;-75
2021/04/21 09:09:35;;;;;;;5.93;2.80;;;;;;;20.65;32.66;99849.28;5091805;28;20276;-74
2021/04/21 09:12:03;;;;;;;9.13;2.90;;;;;;;20.71;33.02;99837.59;5070511;28;20296;-75
2021/04/21 09:14:31;;;;;;;6.47;3.23;;;;;;;20.37;33.06;99797.25;5077386;28;20272;-75
2021/04/21 09:16:58;;;;;;;5.80;3.03;;;;;;;20.62;33.33;99838.75;5085412;28;20192;-74
2021/04/21 09:19:26;;;;;;;5.13;2.90;;;;;;;20.58;33.46;99834.72;5087908;28;20591;-74
2021/04/21 09:22:04;;;;;;;5.70;3.17;;;;;;;20.68;33.97;99837.97;5072276;28;20218;-72
2021/04/21 09:24:34;;;;;;;4.90;3.10;;;;;;;20.70;33.84;99830.44;5080796;28;20216;-72
2021/04/21 09:27:30;;;;;;;5.37;3.10;;;;;;;20.86;34.52;99825.81;5081596;28;20197;-73
2021/04/21 09:30:11;;;;;;;4.13;2.77;;;;;;;21.07;33.94;99826.66;5077402;28;20613;-73
2021/04/21 09:32:45;;;;;;;4.53;3.10;;;;;;;20.91;34.00;99826.06;5069149;28;20284;-73
2021/04/21 09:35:19;;;;;;;4.30;2.73;;;;;;;21.10;33.58;99828.13;5068563;28;20205;-73
2021/04/21 09:37:47;;;;;;;5.57;3.00;;;;;;;21.10;33.35;99809.03;5102009;28;20216;-73
2021/04/21 09:40:32;;;;;;;4.57;3.07;;;;;;;21.10;33.16;99814.47;5069442;28;20694;-73
2021/04/21 09:43:00;;;;;;;4.97;2.90;;;;;;;21.07;32.14;99818.44;5069115;28;20642;-73
2021/04/21 09:45:39;;;;;;;4.80;3.17;;;;;;;20.88;33.59;99815.53;5081243;28;20647;-73
2021/04/21 09:48:11;;;;;;;4.93;3.30;;;;;;;20.62;34.04;99818.81;5069350;28;20208;-73
2021/04/21 09:50:39;;;;;;;5.97;3.30;;;;;;;20.32;34.52;99812.50;5068614;28;20244;-73
2021/04/21 09:53:26;;;;;;;5.57;3.40;;;;;;;20.29;33.53;99821.06;5086421;28;20629;-73
2021/04/21 09:56:11;;;;;;;10.57;3.23;;;;;;;20.22;33.84;99814.69;5072785;28;20608;-73
2021/04/21 09:58:41;;;;;;;6.70;3.20;;;;;;;20.11;33.93;99822.28;5080037;28;20356;-73
2021/04/21 10:01:23;;;;;;;4.40;2.50;;;;;;;20.00;33.87;99821.94;5083099;28;20207;-72
2021/04/21 10:04:09;;;;;;;6.20;3.00;;;;;;;19.54;33.69;99806.53;5075007;28;20197;-73
2021/04/21 10:06:38;;;;;;;4.93;3.13;;;;;;;19.28;35.08;99818.84;5085318;28;20185;-72
2021/04/21 10:09:05;;;;;;;4.57;3.00;;;;;;;19.17;35.06;99822.84;5070756;28;20205;-72
2021/04/21 10:11:32;;;;;;;4.50;2.63;;;;;;;19.11;35.36;99804.53;5088106;28;20828;-72
2021/04/21 10:14:01;;;;;;;5.13;2.77;;;;;;;19.38;34.88;99817.56;5080323;28;20196;-72
2021/04/21 10:16:28;;;;;;;6.70;2.60;;;;;;;19.46;35.13;99820.22;5075858;28;20550;-73
2021/04/21 10:18:56;;;;;;;4.30;2.43;;;;;;;19.40;35.67;99820.97;5075337;28;20205;-73
2021/04/21 10:21:23;;;;;;;6.90;2.53;;;;;;;19.37;35.44;99810.44;5081472;28;20187;-73
2021/04/21 10:23:51;;;;;;;3.83;2.50;;;;;;;19.49;35.18;99814.41;5073507;28;20295;-73
2021/04/21 10:26:19;;;;;;;5.50;2.50;;;;;;;19.46;35.84;99811.19;5084001;28;20688;-72
2021/04/21 10:28:46;;;;;;;3.50;2.27;;;;;;;19.32;35.09;99806.56;5077595;28;20197;-73
2021/04/21 10:31:18;;;;;;;6.20;2.50;;;;;;;19.03;36.38;99780.09;5071414;28;20221;-73
2021/04/21 10:33:48;;;;;;;3.93;2.30;;;;;;;19.35;36.09;99806.22;5085720;28;20201;-73
2021/04/21 10:36:15;;;;;;;8.73;2.60;;;;;;;19.27;36.24;99793.47;5089014;28;20287;-73
2021/04/21 10:38:43;;;;;;;3.37;2.30;;;;;;;19.28;36.15;99795.19;5088739;28;20287;-72
2021/04/21 10:41:22;;;;;;;3.20;2.30;;;;;;;19.32;35.92;99780.19;5081574;28;20201;-73
2021/04/21 10:43:50;;;;;;;2.47;2.03;;;;;;;19.41;34.85;99787.25;5068307;28;20201;-73
2021/04/21 10:46:18;;;;;;;5.13;2.13;;;;;;;19.39;34.65;99802.06;5073207;28;20228;-72
2021/04/21 10:48:46;;;;;;;3.20;2.30;;;;;;;18.87;35.61;99794.66;5087939;28;20671;-73
2021/04/21 10:51:32;;;;;;;5.43;2.27;;;;;;;18.73;35.72;99809.06;5069350;28;20209;-72
2021/04/21 10:54:00;;;;;;;3.50;2.30;;;;;;;18.38;36.82;99794.09;5081468;28;20281;-72
2021/04/21 10:56:28;;;;;;;2.47;1.90;;;;;;;18.29;37.54;99802.25;5085785;28;20521;-72
2021/04/21 10:58:57;;;;;;;5.03;1.83;;;;;;;18.21;36.89;99758.81;5077799;28;20619;-72
2021/04/21 11:01:29;;;;;;;3.00;2.00;;;;;;;18.25;36.50;99775.63;5086022;28;20659;-71
2021/04/21 11:03:58;;;;;;;1.40;1.30;;;;;;;17.89;37.45;99786.97;5088446;28;20201;-72
2021/04/21 11:06:45;;;;;;;2.20;1.30;;;;;;;17.87;37.07;99780.03;5088439;28;20204;-72
2021/04/21 11:09:15;;;;;;;3.23;1.60;;;;;;;17.65;37.92;99770.69;5072236;28;20262;-72
2021/04/21 11:11:46;;;;;;;1.47;1.37;;;;;;;17.62;37.81;99781.91;5082367;28;20772;-72
2021/04/21 11:14:18;;;;;;;1.10;1.00;;;;;;;17.45;37.28;99772.97;5084004;28;20192;-72
2021/04/21 11:16:46;;;;;;;1.37;1.23;;;;;;;17.43;37.28;99761.41;5091568;28;20213;-72
2021/04/21 11:19:30;;;;;;;3.37;1.13;;;;;;;17.15;37.44;99762.81;5084749;28;20202;-72
2021/04/21 11:22:31;;;;;;;2.57;1.10;;;;;;;17.07;36.92;99769.06;5081671;28;20300;-72
2021/04/21 11:25:30;;;;;;;1.47;1.10;;;;;;;17.12;37.45;99760.41;5086193;28;20204;-72
2021/04/21 11:27:58;;;;;;;3.93;1.40;;;;;;;16.98;37.70;99748.41;5038907;28;20234;-72
2021/04/21 11:30:55;;;;;;;2.43;1.17;;;;;;;17.33;37.57;99748.03;5081248;28;20503;-73
2021/04/21 11:33:56;;;;;;;2.77;1.10;;;;;;;17.74;36.66;99738.97;5071418;28;20216;-73
2021/04/21 11:36:47;;;;;;;3.70;1.20;;;;;;;17.88;36.22;99757.25;5068720;28;20213;-73
2021/04/21 11:39:14;;;;;;;1.17;1.03;;;;;;;18.10;35.97;99742.06;5088153;28;20327;-73
2021/04/21 11:41:47;;;;;;;2.77;1.00;;;;;;;17.82;35.36;99741.66;5082862;28;20549;-73
2021/04/21 11:44:52;;;;;;;2.50;0.80;;;;;;;17.74;35.76;99752.53;5073772;28;20767;-73
2021/04/21 11:47:38;;;;;;;4.13;1.00;;;;;;;17.75;35.08;99751.53;5092064;28;20560;-73
2021/04/21 11:50:23;;;;;;;5.83;0.73;;;;;;;17.45;33.86;99753.97;5071797;28;20282;-73
2021/04/21 11:53:12;;;;;;;1.67;1.07;;;;;;;17.24;35.88;99759.06;5082183;28;20208;-73
2021/04/21 11:55:41;;;;;;;1.60;0.90;;;;;;;17.17;35.07;99753.50;5070816;28;20671;-73
2021/04/21 11:58:10;;;;;;;5.53;0.90;;;;;;;16.96;35.74;99751.28;5077062;28;20610;-72
2021/04/21 12:00:39;;;;;;;0.80;0.60;;;;;;;17.16;34.46;99761.81;5086611;28;20652;-72
2021/04/21 12:03:14;;;;;;;1.17;0.60;;;;;;;17.02;35.30;99755.19;5079142;28;20300;-72
2021/04/21 12:05:44;;;;;;;2.70;0.60;;;;;;;16.78;35.14;99756.00;5079763;28;20196;-73